sensor_id;sensor_type;location;lat;lon;timestamp;pressure;altitude;pressure_sealevel;temperature;humidity
71915;BME280;60387;49.994;14.660;2023-04-02T00:00:17;96688.47;;;14.09;51.31
71915;BME280;60387;49.994;14.660;2023-04-02T00:05:31;96689.28;;;14.10;51.53
71915;BME280;60387;49.994;14.660;2023-04-02T00:08:27;96692.81;;;14.10;51.49
71915;BME280;60387;49.994;14.660;2023-04-02T00:11:02;96690.41;;;14.09;51.43
71915;BME280;60387;49.994;14.660;2023-04-02T00:13:40;96705.97;;;14.08;51.72
71915;BME280;60387;49.994;14.660;2023-04-02T00:16:21;96696.22;;;14.07;51.50
71915;BME280;60387;49.994;14.660;2023-04-02T00:18:58;96704.38;;;14.07;51.61
71915;BME280;60387;49.994;14.660;2023-04-02T00:21:35;96705.97;;;14.08;51.32
71915;BME280;60387;49.994;14.660;2023-04-02T00:24:13;96697.78;;;14.08;51.48
71915;BME280;60387;49.994;14.660;2023-04-02T00:26:50;96709.03;;;14.07;52.17
71915;BME280;60387;49.994;14.660;2023-04-02T00:29:23;96704.28;;;14.04;52.17
71915;BME280;60387;49.994;14.660;2023-04-02T00:31:57;96708.03;;;13.99;52.28
71915;BME280;60387;49.994;14.660;2023-04-02T00:34:35;96707.25;;;13.99;52.50
71915;BME280;60387;49.994;14.660;2023-04-02T00:37:16;96711.81;;;13.95;52.35
71915;BME280;60387;49.994;14.660;2023-04-02T00:39:59;96707.84;;;13.92;52.75
71915;BME280;60387;49.994;14.660;2023-04-02T00:42:34;96710.50;;;13.89;53.40
71915;BME280;60387;49.994;14.660;2023-04-02T00:45:21;96711.97;;;13.86;53.23
71915;BME280;60387;49.994;14.660;2023-04-02T00:47:58;96706.41;;;13.83;53.07
71915;BME280;60387;49.994;14.660;2023-04-02T00:50:37;96718.56;;;13.85;53.19
71915;BME280;60387;49.994;14.660;2023-04-02T00:53:20;96720.03;;;13.83;52.69
71915;BME280;60387;49.994;14.660;2023-04-02T00:55:56;96720.81;;;13.83;52.90
71915;BME280;60387;49.994;14.660;2023-04-02T00:58:35;96723.53;;;13.83;53.20
71915;BME280;60387;49.994;14.660;2023-04-02T01:01:16;96720.81;;;13.83;53.68
71915;BME280;60387;49.994;14.660;2023-04-02T01:03:58;96718.44;;;13.82;53.50
71915;BME280;60387;49.994;14.660;2023-04-02T01:06:35;96724.22;;;13.80;53.20
71915;BME280;60387;49.994;14.660;2023-04-02T01:17:42;96731.50;;;13.76;54.09
71915;BME280;60387;49.994;14.660;2023-04-02T01:20:39;96737.63;;;13.73;54.12
71915;BME280;60387;49.994;14.660;2023-04-02T01:29:13;96734.69;;;13.66;54.34
71915;BME280;60387;49.994;14.660;2023-04-02T01:31:49;96735.41;;;13.63;54.69
71915;BME280;60387;49.994;14.660;2023-04-02T01:34:24;96735.72;;;13.62;55.20
71915;BME280;60387;49.994;14.660;2023-04-02T01:43:02;96744.25;;;13.60;54.12
71915;BME280;60387;49.994;14.660;2023-04-02T01:45:38;96748.19;;;13.63;54.22
71915;BME280;60387;49.994;14.660;2023-04-02T01:48:14;96742.75;;;13.63;54.51
71915;BME280;60387;49.994;14.660;2023-04-02T01:50:50;96752.41;;;13.60;55.14
71915;BME280;60387;49.994;14.660;2023-04-02T01:53:27;96762.16;;;13.61;54.92
71915;BME280;60387;49.994;14.660;2023-04-02T01:56:02;96756.72;;;13.61;54.58
71915;BME280;60387;49.994;14.660;2023-04-02T01:58:35;96759.44;;;13.61;54.32
71915;BME280;60387;49.994;14.660;2023-04-02T02:01:14;96749.34;;;13.62;53.76
71915;BME280;60387;49.994;14.660;2023-04-02T02:03:52;96758.75;;;13.64;53.92
71915;BME280;60387;49.994;14.660;2023-04-02T02:06:29;96757.59;;;13.65;53.80
71915;BME280;60387;49.994;14.660;2023-04-02T02:09:04;96765.44;;;13.67;54.34
71915;BME280;60387;49.994;14.660;2023-04-02T02:11:38;96749.00;;;13.63;54.51
71915;BME280;60387;49.994;14.660;2023-04-02T02:14:15;96758.31;;;13.62;54.52
71915;BME280;60387;49.994;14.660;2023-04-02T02:16:50;96766.03;;;13.60;54.47
71915;BME280;60387;49.994;14.660;2023-04-02T02:19:29;96773.81;;;13.62;54.72
71915;BME280;60387;49.994;14.660;2023-04-02T02:22:27;96768.38;;;13.62;54.62
71915;BME280;60387;49.994;14.660;2023-04-02T02:25:04;96773.72;;;13.58;54.43
71915;BME280;60387;49.994;14.660;2023-04-02T02:33:22;96779.63;;;13.60;54.52
71915;BME280;60387;49.994;14.660;2023-04-02T02:36:31;96786.22;;;13.59;54.50
71915;BME280;60387;49.994;14.660;2023-04-02T02:39:23;96783.50;;;13.59;55.07
71915;BME280;60387;49.994;14.660;2023-04-02T02:42:09;96782.25;;;13.57;54.46
71915;BME280;60387;49.994;14.660;2023-04-02T02:44:49;96792.00;;;13.58;55.28
71915;BME280;60387;49.994;14.660;2023-04-02T02:47:26;96785.28;;;13.55;55.02
71915;BME280;60387;49.994;14.660;2023-04-02T02:50:06;96793.00;;;13.53;55.04
71915;BME280;60387;49.994;14.660;2023-04-02T02:52:45;96790.75;;;13.55;54.83
71915;BME280;60387;49.994;14.660;2023-04-02T02:55:23;96794.59;;;13.54;54.64
71915;BME280;60387;49.994;14.660;2023-04-02T03:00:34;96800.47;;;13.56;54.62
71915;BME280;60387;49.994;14.660;2023-04-02T03:03:16;96797.00;;;13.56;54.29
71915;BME280;60387;49.994;14.660;2023-04-02T03:05:53;96797.44;;;13.58;54.50
71915;BME280;60387;49.994;14.660;2023-04-02T03:11:21;96808.75;;;13.60;54.50
71915;BME280;60387;49.994;14.660;2023-04-02T03:14:10;96801.72;;;13.59;54.47
71915;BME280;60387;49.994;14.660;2023-04-02T03:16:48;96804.34;;;13.55;54.80
71915;BME280;60387;49.994;14.660;2023-04-02T03:19:46;96819.19;;;13.58;54.80
71915;BME280;60387;49.994;14.660;2023-04-02T03:22:30;96807.19;;;13.47;55.80
71915;BME280;60387;49.994;14.660;2023-04-02T03:28:05;96820.88;;;13.50;55.39
71915;BME280;60387;49.994;14.660;2023-04-02T03:30:51;96819.31;;;13.49;55.57
71915;BME280;60387;49.994;14.660;2023-04-02T03:33:30;96831.78;;;13.50;55.64
71915;BME280;60387;49.994;14.660;2023-04-02T03:38:59;96833.16;;;13.44;55.64
71915;BME280;60387;49.994;14.660;2023-04-02T03:41:45;96832.47;;;13.47;55.55
71915;BME280;60387;49.994;14.660;2023-04-02T03:44:44;96848.78;;;13.47;55.56
71915;BME280;60387;49.994;14.660;2023-04-02T03:52:38;96844.69;;;13.41;57.04
71915;BME280;60387;49.994;14.660;2023-04-02T03:55:15;96853.34;;;13.43;58.37
71915;BME280;60387;49.994;14.660;2023-04-02T04:01:25;96857.16;;;13.30;59.00
71915;BME280;60387;49.994;14.660;2023-04-02T04:04:09;96857.94;;;13.19;59.72
71915;BME280;60387;49.994;14.660;2023-04-02T04:06:48;96874.72;;;13.09;58.77
71915;BME280;60387;49.994;14.660;2023-04-02T04:09:31;96861.06;;;12.65;59.89
71915;BME280;60387;49.994;14.660;2023-04-02T04:12:27;96869.59;;;12.75;60.79
71915;BME280;60387;49.994;14.660;2023-04-02T04:15:08;96877.00;;;12.75;60.49
71915;BME280;60387;49.994;14.660;2023-04-02T04:20:48;96892.91;;;12.64;60.69
71915;BME280;60387;49.994;14.660;2023-04-02T04:23:34;96901.00;;;12.52;61.05
71915;BME280;60387;49.994;14.660;2023-04-02T04:29:09;96907.41;;;12.48;61.48
71915;BME280;60387;49.994;14.660;2023-04-02T04:31:49;96905.13;;;12.38;61.53
71915;BME280;60387;49.994;14.660;2023-04-02T04:34:27;96910.03;;;12.24;61.25
71915;BME280;60387;49.994;14.660;2023-04-02T04:37:03;96925.66;;;12.27;61.40
71915;BME280;60387;49.994;14.660;2023-04-02T04:39:44;96926.78;;;12.26;61.47
71915;BME280;60387;49.994;14.660;2023-04-02T04:42:23;96939.41;;;12.22;61.17
71915;BME280;60387;49.994;14.660;2023-04-02T04:47:47;96941.66;;;11.70;62.81
71915;BME280;60387;49.994;14.660;2023-04-02T04:50:37;96939.84;;;11.83;62.36
71915;BME280;60387;49.994;14.660;2023-04-02T04:53:21;96943.19;;;11.80;61.56
71915;BME280;60387;49.994;14.660;2023-04-02T04:55:59;96955.03;;;11.75;61.50
71915;BME280;60387;49.994;14.660;2023-04-02T04:58:41;96968.19;;;11.65;61.33
71915;BME280;60387;49.994;14.660;2023-04-02T05:01:26;96969.16;;;11.52;62.83
71915;BME280;60387;49.994;14.660;2023-04-02T05:04:22;96976.16;;;11.61;62.61
71915;BME280;60387;49.994;14.660;2023-04-02T05:09:46;96987.66;;;11.58;62.84
71915;BME280;60387;49.994;14.660;2023-04-02T05:12:50;96995.78;;;11.58;62.51
71915;BME280;60387;49.994;14.660;2023-04-02T05:15:40;97004.91;;;11.45;62.97
71915;BME280;60387;49.994;14.660;2023-04-02T05:18:39;97006.59;;;11.21;63.27
71915;BME280;60387;49.994;14.660;2023-04-02T05:21:23;97013.59;;;11.22;63.07
71915;BME280;60387;49.994;14.660;2023-04-02T05:24:25;97016.47;;;11.17;63.34
71915;BME280;60387;49.994;14.660;2023-04-02T05:27:11;97023.34;;;11.06;63.08
71915;BME280;60387;49.994;14.660;2023-04-02T05:29:55;97024.63;;;11.08;62.97
71915;BME280;60387;49.994;14.660;2023-04-02T05:32:35;97031.31;;;11.02;62.80
71915;BME280;60387;49.994;14.660;2023-04-02T05:35:15;97040.41;;;10.98;63.51
71915;BME280;60387;49.994;14.660;2023-04-02T05:37:49;97041.53;;;10.97;62.49
71915;BME280;60387;49.994;14.660;2023-04-02T05:40:33;97050.13;;;10.99;63.36
71915;BME280;60387;49.994;14.660;2023-04-02T05:43:09;97053.78;;;10.94;62.72
71915;BME280;60387;49.994;14.660;2023-04-02T05:45:52;97060.78;;;10.95;63.23
71915;BME280;60387;49.994;14.660;2023-04-02T05:48:39;97062.53;;;10.83;62.90
71915;BME280;60387;49.994;14.660;2023-04-02T05:51:19;97063.34;;;10.83;62.28
71915;BME280;60387;49.994;14.660;2023-04-02T05:53:59;97070.69;;;10.74;62.50
71915;BME280;60387;49.994;14.660;2023-04-02T05:56:36;97079.91;;;10.73;62.02
71915;BME280;60387;49.994;14.660;2023-04-02T05:59:18;97087.72;;;10.75;62.25
71915;BME280;60387;49.994;14.660;2023-04-02T06:01:58;97073.84;;;10.68;62.62
71915;BME280;60387;49.994;14.660;2023-04-02T06:04:43;97095.66;;;10.54;62.29
71915;BME280;60387;49.994;14.660;2023-04-02T06:07:19;97100.59;;;10.52;62.11
71915;BME280;60387;49.994;14.660;2023-04-02T06:10:04;97098.97;;;10.43;62.88
71915;BME280;60387;49.994;14.660;2023-04-02T06:12:42;97102.19;;;10.45;62.16
71915;BME280;60387;49.994;14.660;2023-04-02T06:15:21;97102.78;;;10.42;62.36
71915;BME280;60387;49.994;14.660;2023-04-02T06:20:45;97117.97;;;10.12;62.10
71915;BME280;60387;49.994;14.660;2023-04-02T06:23:39;97126.66;;;10.01;62.46
71915;BME280;60387;49.994;14.660;2023-04-02T06:26:24;97134.28;;;9.99;62.29
71915;BME280;60387;49.994;14.660;2023-04-02T06:31:55;97146.53;;;9.96;62.69
71915;BME280;60387;49.994;14.660;2023-04-02T06:34:30;97160.75;;;10.02;62.74
71915;BME280;60387;49.994;14.660;2023-04-02T06:39:44;97149.19;;;9.88;62.23
71915;BME280;60387;49.994;14.660;2023-04-02T06:42:27;97164.69;;;9.74;62.56
71915;BME280;60387;49.994;14.660;2023-04-02T06:45:03;97170.50;;;9.59;62.87
71915;BME280;60387;49.994;14.660;2023-04-02T06:47:45;97182.66;;;9.70;62.82
71915;BME280;60387;49.994;14.660;2023-04-02T06:50:35;97186.09;;;9.62;62.83
71915;BME280;60387;49.994;14.660;2023-04-02T06:53:36;97192.63;;;9.61;62.78
71915;BME280;60387;49.994;14.660;2023-04-02T06:59:09;97215.84;;;9.62;62.83
71915;BME280;60387;49.994;14.660;2023-04-02T07:01:46;97215.84;;;9.62;63.18
71915;BME280;60387;49.994;14.660;2023-04-02T07:04:21;97220.44;;;9.61;62.88
71915;BME280;60387;49.994;14.660;2023-04-02T07:06:55;97227.81;;;9.48;62.57
71915;BME280;60387;49.994;14.660;2023-04-02T07:09:28;97242.13;;;9.48;63.01
71915;BME280;60387;49.994;14.660;2023-04-02T07:12:01;97235.47;;;9.32;62.88
71915;BME280;60387;49.994;14.660;2023-04-02T07:14:35;97239.78;;;9.33;62.73
71915;BME280;60387;49.994;14.660;2023-04-02T07:17:15;97256.69;;;9.39;63.06
71915;BME280;60387;49.994;14.660;2023-04-02T07:19:48;97245.41;;;9.23;62.51
71915;BME280;60387;49.994;14.660;2023-04-02T07:22:22;97268.72;;;9.19;63.55
71915;BME280;60387;49.994;14.660;2023-04-02T07:24:55;97271.69;;;9.31;62.92
71915;BME280;60387;49.994;14.660;2023-04-02T07:27:29;97275.03;;;9.28;63.41
71915;BME280;60387;49.994;14.660;2023-04-02T07:30:03;97277.25;;;9.26;62.91
71915;BME280;60387;49.994;14.660;2023-04-02T07:32:36;97296.63;;;9.28;62.25
71915;BME280;60387;49.994;14.660;2023-04-02T07:35:10;97297.25;;;9.25;62.74
71915;BME280;60387;49.994;14.660;2023-04-02T07:37:43;97299.44;;;9.23;62.29
71915;BME280;60387;49.994;14.660;2023-04-02T07:40:20;97305.84;;;9.27;62.33
71915;BME280;60387;49.994;14.660;2023-04-02T07:42:53;97311.06;;;9.24;62.79
71915;BME280;60387;49.994;14.660;2023-04-02T07:45:27;97318.16;;;9.33;62.82
71915;BME280;60387;49.994;14.660;2023-04-02T07:48:07;97316.44;;;9.37;62.68
71915;BME280;60387;49.994;14.660;2023-04-02T07:50:41;97315.81;;;9.40;62.48
71915;BME280;60387;49.994;14.660;2023-04-02T07:53:26;97333.84;;;9.44;62.74
71915;BME280;60387;49.994;14.660;2023-04-02T07:56:01;97346.88;;;9.43;62.18
71915;BME280;60387;49.994;14.660;2023-04-02T07:58:34;97333.66;;;9.41;61.87
71915;BME280;60387;49.994;14.660;2023-04-02T08:01:18;97338.66;;;9.48;61.77
71915;BME280;60387;49.994;14.660;2023-04-02T08:03:53;97347.75;;;9.51;61.93
71915;BME280;60387;49.994;14.660;2023-04-02T08:06:26;97357.06;;;9.45;61.59
71915;BME280;60387;49.994;14.660;2023-04-02T08:09:01;97367.19;;;9.40;61.32
71915;BME280;60387;49.994;14.660;2023-04-02T08:11:34;97372.09;;;9.38;60.67
71915;BME280;60387;49.994;14.660;2023-04-02T08:14:08;97380.91;;;9.30;60.94
71915;BME280;60387;49.994;14.660;2023-04-02T08:16:50;97383.22;;;9.23;60.74
71915;BME280;60387;49.994;14.660;2023-04-02T08:19:24;97384.22;;;9.27;61.04
71915;BME280;60387;49.994;14.660;2023-04-02T08:21:58;97378.13;;;8.95;60.50
71915;BME280;60387;49.994;14.660;2023-04-02T08:24:31;97385.69;;;8.79;60.86
71915;BME280;60387;49.994;14.660;2023-04-02T08:27:04;97399.09;;;8.84;60.42
71915;BME280;60387;49.994;14.660;2023-04-02T08:29:38;97396.28;;;8.89;61.09
71915;BME280;60387;49.994;14.660;2023-04-02T08:32:13;97400.94;;;9.02;61.22
71915;BME280;60387;49.994;14.660;2023-04-02T08:34:46;97411.47;;;9.17;61.57
71915;BME280;60387;49.994;14.660;2023-04-02T08:37:20;97413.75;;;9.24;60.74
71915;BME280;60387;49.994;14.660;2023-04-02T08:39:53;97416.75;;;9.36;60.77
71915;BME280;60387;49.994;14.660;2023-04-02T08:42:58;97423.56;;;9.47;60.62
71915;BME280;60387;49.994;14.660;2023-04-02T08:48:25;97441.97;;;9.31;60.10
71915;BME280;60387;49.994;14.660;2023-04-02T08:50:59;97429.97;;;9.37;59.73
71915;BME280;60387;49.994;14.660;2023-04-02T08:53:36;97447.38;;;9.44;59.99
71915;BME280;60387;49.994;14.660;2023-04-02T08:56:17;97442.88;;;9.40;59.55
71915;BME280;60387;49.994;14.660;2023-04-02T09:02:24;97452.63;;;9.54;59.29
71915;BME280;60387;49.994;14.660;2023-04-02T09:05:02;97457.63;;;9.48;59.06
71915;BME280;60387;49.994;14.660;2023-04-02T09:07:36;97463.72;;;9.53;59.54
71915;BME280;60387;49.994;14.660;2023-04-02T09:10:14;97470.72;;;9.54;58.83
71915;BME280;60387;49.994;14.660;2023-04-02T09:12:51;97466.41;;;9.26;59.10
71915;BME280;60387;49.994;14.660;2023-04-02T09:15:31;97476.53;;;9.48;59.30
71915;BME280;60387;49.994;14.660;2023-04-02T09:18:12;97474.41;;;9.58;59.37
71915;BME280;60387;49.994;14.660;2023-04-02T09:20:46;97485.63;;;9.65;59.66
71915;BME280;60387;49.994;14.660;2023-04-02T09:23:23;97480.34;;;9.73;59.77
71915;BME280;60387;49.994;14.660;2023-04-02T09:25:57;97483.75;;;9.79;59.55
71915;BME280;60387;49.994;14.660;2023-04-02T09:28:31;97480.84;;;9.75;58.70
71915;BME280;60387;49.994;14.660;2023-04-02T09:33:46;97495.66;;;9.78;58.41
71915;BME280;60387;49.994;14.660;2023-04-02T09:36:36;97500.47;;;9.81;58.66
71915;BME280;60387;49.994;14.660;2023-04-02T09:39:19;97507.69;;;9.85;58.70
71915;BME280;60387;49.994;14.660;2023-04-02T09:41:52;97494.28;;;9.80;58.29
71915;BME280;60387;49.994;14.660;2023-04-02T09:44:27;97510.78;;;9.92;58.63
71915;BME280;60387;49.994;14.660;2023-04-02T09:47:09;97514.09;;;9.89;57.86
71915;BME280;60387;49.994;14.660;2023-04-02T09:50:12;97528.75;;;9.88;57.87
71915;BME280;60387;49.994;14.660;2023-04-02T09:52:47;97529.72;;;9.92;58.26
71915;BME280;60387;49.994;14.660;2023-04-02T09:55:23;97533.94;;;9.98;58.15
71915;BME280;60387;49.994;14.660;2023-04-02T09:58:10;97547.84;;;9.92;56.75
71915;BME280;60387;49.994;14.660;2023-04-02T10:00:52;97541.75;;;9.86;56.78
71915;BME280;60387;49.994;14.660;2023-04-02T10:03:28;97557.28;;;9.81;56.74
71915;BME280;60387;49.994;14.660;2023-04-02T10:06:14;97562.78;;;9.76;56.53
71915;BME280;60387;49.994;14.660;2023-04-02T10:08:48;97557.38;;;9.76;56.22
71915;BME280;60387;49.994;14.660;2023-04-02T10:11:33;97564.69;;;9.75;56.47
71915;BME280;60387;49.994;14.660;2023-04-02T10:14:17;97573.19;;;9.69;56.54
71915;BME280;60387;49.994;14.660;2023-04-02T10:16:54;97571.19;;;9.74;56.54
71915;BME280;60387;49.994;14.660;2023-04-02T10:19:34;97572.50;;;9.77;55.87
71915;BME280;60387;49.994;14.660;2023-04-02T10:22:13;97577.22;;;9.71;55.83
71915;BME280;60387;49.994;14.660;2023-04-02T10:24:49;97582.94;;;9.83;55.79
71915;BME280;60387;49.994;14.660;2023-04-02T10:27:33;97605.34;;;9.84;55.59
71915;BME280;60387;49.994;14.660;2023-04-02T10:33:13;97605.88;;;9.86;54.89
71915;BME280;60387;49.994;14.660;2023-04-02T10:35:59;97608.66;;;9.81;54.04
71915;BME280;60387;49.994;14.660;2023-04-02T10:38:52;97624.66;;;9.64;54.01
71915;BME280;60387;49.994;14.660;2023-04-02T10:41:53;97615.03;;;9.58;53.93
71915;BME280;60387;49.994;14.660;2023-04-02T10:44:42;97608.47;;;9.45;54.44
71915;BME280;60387;49.994;14.660;2023-04-02T10:52:57;97622.88;;;9.41;55.33
71915;BME280;60387;49.994;14.660;2023-04-02T10:55:35;97626.19;;;9.38;55.01
71915;BME280;60387;49.994;14.660;2023-04-02T10:58:32;97629.19;;;9.37;55.70
71915;BME280;60387;49.994;14.660;2023-04-02T11:01:14;97632.50;;;9.34;55.46
71915;BME280;60387;49.994;14.660;2023-04-02T11:03:51;97633.59;;;9.33;54.71
71915;BME280;60387;49.994;14.660;2023-04-02T11:09:05;97648.25;;;9.45;55.10
71915;BME280;60387;49.994;14.660;2023-04-02T11:11:42;97653.66;;;9.45;54.87
71915;BME280;60387;49.994;14.660;2023-04-02T11:14:29;97655.25;;;9.46;55.31
71915;BME280;60387;49.994;14.660;2023-04-02T11:17:03;97670.38;;;9.47;54.63
71915;BME280;60387;49.994;14.660;2023-04-02T11:19:36;97661.78;;;9.45;54.68
71915;BME280;60387;49.994;14.660;2023-04-02T11:22:22;97679.31;;;9.48;54.10
71915;BME280;60387;49.994;14.660;2023-04-02T11:24:56;97680.75;;;9.40;54.08
71915;BME280;60387;49.994;14.660;2023-04-02T11:27:31;97682.91;;;9.43;54.36
71915;BME280;60387;49.994;14.660;2023-04-02T11:32:48;97699.03;;;9.48;54.29
71915;BME280;60387;49.994;14.660;2023-04-02T11:35:42;97697.91;;;9.49;54.02
71915;BME280;60387;49.994;14.660;2023-04-02T11:40:55;97709.34;;;9.46;54.22
71915;BME280;60387;49.994;14.660;2023-04-02T11:46:33;97725.06;;;9.44;54.11
71915;BME280;60387;49.994;14.660;2023-04-02T11:49:36;97733.94;;;9.44;54.22
71915;BME280;60387;49.994;14.660;2023-04-02T11:52:23;97730.09;;;9.50;54.57
71915;BME280;60387;49.994;14.660;2023-04-02T11:55:02;97745.63;;;9.58;55.01
71915;BME280;60387;49.994;14.660;2023-04-02T11:57:45;97736.22;;;9.56;54.57
71915;BME280;60387;49.994;14.660;2023-04-02T12:09:49;97756.19;;;9.60;54.83
71915;BME280;60387;49.994;14.660;2023-04-02T12:12:27;97767.22;;;9.63;54.27
71915;BME280;60387;49.994;14.660;2023-04-02T12:15:35;97766.63;;;9.66;54.28
71915;BME280;60387;49.994;14.660;2023-04-02T12:18:13;97770.41;;;9.65;54.45
71915;BME280;60387;49.994;14.660;2023-04-02T12:20:50;97772.75;;;9.72;54.60
71915;BME280;60387;49.994;14.660;2023-04-02T12:23:28;97774.78;;;9.61;53.70
71915;BME280;60387;49.994;14.660;2023-04-02T12:26:12;97776.72;;;9.61;53.77
71915;BME280;60387;49.994;14.660;2023-04-02T12:29:14;97778.09;;;9.58;53.97
71915;BME280;60387;49.994;14.660;2023-04-02T12:31:47;97781.00;;;9.62;54.28
71915;BME280;60387;49.994;14.660;2023-04-02T12:34:23;97783.13;;;9.65;54.10
71915;BME280;60387;49.994;14.660;2023-04-02T12:37:02;97784.94;;;9.69;54.62
71915;BME280;60387;49.994;14.660;2023-04-02T12:39:36;97776.63;;;9.66;54.13
71915;BME280;60387;49.994;14.660;2023-04-02T12:42:44;97790.72;;;9.63;54.13
71915;BME280;60387;49.994;14.660;2023-04-02T12:47:56;97788.38;;;9.38;54.09
71915;BME280;60387;49.994;14.660;2023-04-02T12:50:31;97808.25;;;9.47;53.82
71915;BME280;60387;49.994;14.660;2023-04-02T12:53:47;97801.03;;;9.43;54.12
71915;BME280;60387;49.994;14.660;2023-04-02T12:56:22;97818.63;;;9.40;54.03
71915;BME280;60387;49.994;14.660;2023-04-02T12:58:58;97804.88;;;9.37;54.56
71915;BME280;60387;49.994;14.660;2023-04-02T13:01:32;97817.03;;;9.39;54.61
71915;BME280;60387;49.994;14.660;2023-04-02T13:04:07;97820.81;;;9.38;54.64
71915;BME280;60387;49.994;14.660;2023-04-02T13:06:48;97807.53;;;9.42;54.63
71915;BME280;60387;49.994;14.660;2023-04-02T13:09:32;97824.03;;;9.40;53.59
71915;BME280;60387;49.994;14.660;2023-04-02T13:12:31;97830.41;;;9.31;54.10
71915;BME280;60387;49.994;14.660;2023-04-02T13:15:06;97836.13;;;9.24;54.25
71915;BME280;60387;49.994;14.660;2023-04-02T13:17:45;97835.63;;;9.22;54.35
71915;BME280;60387;49.994;14.660;2023-04-02T13:20:58;97839.09;;;9.04;54.60
71915;BME280;60387;49.994;14.660;2023-04-02T13:23:34;97846.59;;;8.89;54.61
71915;BME280;60387;49.994;14.660;2023-04-02T13:26:21;97842.09;;;8.79;54.60
71915;BME280;60387;49.994;14.660;2023-04-02T13:31:56;97853.75;;;8.75;54.79
71915;BME280;60387;49.994;14.660;2023-04-02T13:34:30;97848.84;;;8.77;55.32
71915;BME280;60387;49.994;14.660;2023-04-02T13:37:03;97845.13;;;8.73;55.19
71915;BME280;60387;49.994;14.660;2023-04-02T13:39:37;97850.94;;;8.85;54.64
71915;BME280;60387;49.994;14.660;2023-04-02T13:42:10;97855.47;;;8.89;54.74
71915;BME280;60387;49.994;14.660;2023-04-02T13:44:44;97859.28;;;8.88;54.92
71915;BME280;60387;49.994;14.660;2023-04-02T13:47:17;97868.69;;;8.91;55.03
71915;BME280;60387;49.994;14.660;2023-04-02T13:49:50;97870.28;;;8.97;55.34
71915;BME280;60387;49.994;14.660;2023-04-02T13:52:23;97874.34;;;8.94;55.19
71915;BME280;60387;49.994;14.660;2023-04-02T13:54:57;97883.06;;;9.10;55.08
71915;BME280;60387;49.994;14.660;2023-04-02T13:57:30;97880.59;;;9.13;54.58
71915;BME280;60387;49.994;14.660;2023-04-02T14:00:04;97886.28;;;9.12;54.21
71915;BME280;60387;49.994;14.660;2023-04-02T14:02:41;97885.00;;;9.09;54.42
71915;BME280;60387;49.994;14.660;2023-04-02T14:14:37;97901.34;;;8.94;53.98
71915;BME280;60387;49.994;14.660;2023-04-02T14:17:23;97905.25;;;8.83;53.64
71915;BME280;60387;49.994;14.660;2023-04-02T14:26:13;97924.41;;;8.87;53.64
71915;BME280;60387;49.994;14.660;2023-04-02T14:31:30;97932.91;;;8.70;53.26
71915;BME280;60387;49.994;14.660;2023-04-02T14:34:16;97929.56;;;8.83;53.86
71915;BME280;60387;49.994;14.660;2023-04-02T14:37:19;97936.56;;;8.84;53.56
71915;BME280;60387;49.994;14.660;2023-04-02T14:40:25;97942.09;;;8.69;53.05
71915;BME280;60387;49.994;14.660;2023-04-02T14:43:15;97944.91;;;8.88;53.10
71915;BME280;60387;49.994;14.660;2023-04-02T14:46:02;97941.41;;;8.87;52.80
71915;BME280;60387;49.994;14.660;2023-04-02T14:51:52;97948.94;;;8.90;52.90
71915;BME280;60387;49.994;14.660;2023-04-02T14:54:38;97948.63;;;8.97;53.44
71915;BME280;60387;49.994;14.660;2023-04-02T14:57:34;97950.50;;;8.96;53.30
71915;BME280;60387;49.994;14.660;2023-04-02T15:03:15;97962.53;;;8.80;53.42
71915;BME280;60387;49.994;14.660;2023-04-02T15:05:56;97970.16;;;8.73;53.35
71915;BME280;60387;49.994;14.660;2023-04-02T15:11:26;97972.38;;;8.66;54.00
71915;BME280;60387;49.994;14.660;2023-04-02T15:14:24;97980.44;;;8.71;53.54
71915;BME280;60387;49.994;14.660;2023-04-02T15:16:59;97973.69;;;8.69;54.03
71915;BME280;60387;49.994;14.660;2023-04-02T15:19:32;97986.97;;;8.65;54.06
71915;BME280;60387;49.994;14.660;2023-04-02T15:22:34;97991.91;;;8.58;54.15
71915;BME280;60387;49.994;14.660;2023-04-02T15:25:17;97994.34;;;8.55;53.93
71915;BME280;60387;49.994;14.660;2023-04-02T15:28:19;97997.31;;;8.53;54.07
71915;BME280;60387;49.994;14.660;2023-04-02T15:30:59;97998.47;;;8.42;54.26
71915;BME280;60387;49.994;14.660;2023-04-02T15:40:14;98012.38;;;8.21;53.79
71915;BME280;60387;49.994;14.660;2023-04-02T15:45:47;98024.06;;;8.01;54.04
71915;BME280;60387;49.994;14.660;2023-04-02T16:11:35;98044.53;;;8.02;53.56
71915;BME280;60387;49.994;14.660;2023-04-02T16:14:29;98053.72;;;8.01;53.06
71915;BME280;60387;49.994;14.660;2023-04-02T16:17:08;98051.03;;;7.96;53.69
71915;BME280;60387;49.994;14.660;2023-04-02T16:19:47;98062.09;;;8.00;53.54
71915;BME280;60387;49.994;14.660;2023-04-02T16:22:29;98062.91;;;8.00;53.29
71915;BME280;60387;49.994;14.660;2023-04-02T16:25:17;98067.22;;;8.06;53.39
71915;BME280;60387;49.994;14.660;2023-04-02T16:28:17;98077.69;;;8.13;53.56
71915;BME280;60387;49.994;14.660;2023-04-02T16:31:12;98077.13;;;8.16;53.53
71915;BME280;60387;49.994;14.660;2023-04-02T16:33:59;98086.88;;;8.12;53.65
71915;BME280;60387;49.994;14.660;2023-04-02T16:39:40;98083.06;;;8.23;53.62
71915;BME280;60387;49.994;14.660;2023-04-02T16:45:46;98087.41;;;8.19;53.49
71915;BME280;60387;49.994;14.660;2023-04-02T16:51:19;98083.03;;;8.18;53.55
71915;BME280;60387;49.994;14.660;2023-04-02T16:54:21;98096.03;;;8.21;53.20
71915;BME280;60387;49.994;14.660;2023-04-02T16:57:20;98094.41;;;8.20;53.18
71915;BME280;60387;49.994;14.660;2023-04-02T17:00:16;98097.91;;;8.20;53.43
71915;BME280;60387;49.994;14.660;2023-04-02T17:06:07;98105.47;;;8.13;53.58
71915;BME280;60387;49.994;14.660;2023-04-02T17:08:43;98108.97;;;8.14;53.60
71915;BME280;60387;49.994;14.660;2023-04-02T17:11:23;98110.84;;;8.18;53.66
71915;BME280;60387;49.994;14.660;2023-04-02T17:14:03;98114.94;;;8.21;53.73